createdAt,value
2023-05-13T00:02:02.208Z,11.50
2023-05-13T00:04:30.554Z,11.43
2023-05-13T00:06:58.926Z,11.35
2023-05-13T00:09:28.031Z,11.29
2023-05-13T00:11:56.374Z,11.22
2023-05-13T00:14:24.770Z,11.17
2023-05-13T00:16:53.088Z,11.10
2023-05-13T00:19:21.517Z,11.05
2023-05-13T00:21:49.881Z,11.00
2023-05-13T00:24:18.248Z,10.93
2023-05-13T00:26:46.839Z,10.86
2023-05-13T00:29:15.494Z,10.79
2023-05-13T00:31:43.947Z,10.72
2023-05-13T00:34:12.446Z,10.67
2023-05-13T00:36:40.900Z,10.60
2023-05-13T00:39:09.342Z,10.55
2023-05-13T00:41:38.266Z,10.49
2023-05-13T00:44:06.636Z,10.43
2023-05-13T00:46:36.274Z,10.37
2023-05-13T00:49:05.080Z,10.33
2023-05-13T00:51:33.457Z,10.26
2023-05-13T00:54:01.957Z,10.21
2023-05-13T00:56:54.523Z,10.20
2023-05-13T00:59:29.531Z,10.14
2023-05-13T01:02:26.959Z,10.12
2023-05-13T01:05:05.598Z,10.10
2023-05-13T01:07:56.208Z,10.08
2023-05-13T01:10:49.769Z,10.04
2023-05-13T01:13:27.601Z,9.93
2023-05-13T01:16:12.247Z,9.83
2023-05-13T01:18:53.975Z,9.77
2023-05-13T01:21:29.619Z,9.74
2023-05-13T01:23:58.143Z,9.72
2023-05-13T01:26:26.910Z,9.69
2023-05-13T01:28:55.501Z,9.64
2023-05-13T01:31:24.352Z,9.59
2023-05-13T01:33:53.328Z,9.55
2023-05-13T01:36:21.977Z,9.51
2023-05-13T01:38:51.905Z,9.46
2023-05-13T01:41:20.814Z,9.41
2023-05-13T01:43:49.222Z,9.38
2023-05-13T01:46:17.587Z,9.33
2023-05-13T01:48:45.995Z,9.29
2023-05-13T01:51:14.485Z,9.24
2023-05-13T01:53:42.841Z,9.19
2023-05-13T01:56:11.256Z,9.13
2023-05-13T01:58:39.667Z,9.07
2023-05-13T02:01:08.068Z,9.02
2023-05-13T02:03:37.373Z,8.96
2023-05-13T02:06:06.247Z,8.91
2023-05-13T02:08:34.843Z,8.88
2023-05-13T02:11:03.376Z,8.85
2023-05-13T02:13:31.796Z,8.82
2023-05-13T02:16:00.207Z,8.78
2023-05-13T02:18:28.727Z,8.75
2023-05-13T02:20:57.681Z,8.71
2023-05-13T02:23:26.123Z,8.64
2023-05-13T02:25:54.534Z,8.59
2023-05-13T02:28:22.963Z,8.53
2023-05-13T02:30:51.492Z,8.48
2023-05-13T02:33:19.856Z,8.43
2023-05-13T02:36:49.890Z,8.40
2023-05-13T02:39:18.521Z,8.32
2023-05-13T02:41:46.957Z,8.26
2023-05-13T02:44:15.522Z,8.20
2023-05-13T02:46:44.310Z,8.16
2023-05-13T02:49:12.951Z,8.13
2023-05-13T02:51:41.340Z,8.10
2023-05-13T02:54:09.784Z,8.06
2023-05-13T02:56:38.185Z,8.03
2023-05-13T02:59:06.884Z,8.00
2023-05-13T03:01:35.386Z,7.97
2023-05-13T03:04:04.227Z,7.94
2023-05-13T03:06:32.756Z,7.92
2023-05-13T03:09:01.121Z,7.91
2023-05-13T03:11:29.577Z,7.91
2023-05-13T03:13:57.930Z,7.91
2023-05-13T03:16:27.136Z,7.90
2023-05-13T03:18:55.530Z,7.90
2023-05-13T03:21:24.055Z,7.92
2023-05-13T03:23:52.470Z,7.92
2023-05-13T03:26:21.793Z,7.93
2023-05-13T03:28:50.336Z,7.94
2023-05-13T03:31:18.848Z,7.95
2023-05-13T03:33:47.229Z,7.96
2023-05-13T03:36:15.560Z,8.00
2023-05-13T03:38:43.893Z,8.03
2023-05-13T03:41:12.281Z,8.06
2023-05-13T03:43:40.658Z,8.09
2023-05-13T03:46:09.110Z,8.12
2023-05-13T03:48:37.924Z,8.16
2023-05-13T03:51:06.655Z,8.20
2023-05-13T03:53:35.061Z,8.25
2023-05-13T03:56:03.613Z,8.29
2023-05-13T03:58:32.054Z,8.34
2023-05-13T04:01:00.429Z,8.40
2023-05-13T04:03:28.863Z,8.45
2023-05-13T04:05:57.272Z,8.52
2023-05-13T04:08:25.817Z,8.59
2023-05-13T04:10:54.724Z,8.65
2023-05-13T04:13:23.137Z,8.73
2023-05-13T04:15:51.444Z,8.80
2023-05-13T04:18:20.328Z,8.88
2023-05-13T04:20:48.647Z,8.96
2023-05-13T04:23:17.042Z,9.06
2023-05-13T04:25:52.320Z,9.15
2023-05-13T04:28:20.930Z,9.24
2023-05-13T04:30:49.256Z,9.33
2023-05-13T04:33:17.614Z,9.44
2023-05-13T04:35:46.020Z,9.54
2023-05-13T04:38:14.687Z,9.64
2023-05-13T04:40:45.179Z,9.75
2023-05-13T04:43:14.044Z,9.85
2023-05-13T04:45:42.414Z,9.96
2023-05-13T04:48:10.985Z,10.08
2023-05-13T04:50:39.353Z,10.21
2023-05-13T04:53:08.126Z,10.33
2023-05-13T04:55:36.487Z,10.45
2023-05-13T04:58:04.846Z,10.56
2023-05-13T05:00:33.279Z,10.69
2023-05-13T05:03:01.627Z,10.80
2023-05-13T05:05:30.007Z,10.92
2023-05-13T05:07:58.394Z,11.03
2023-05-13T05:10:26.749Z,11.14
2023-05-13T05:12:55.439Z,11.25
2023-05-13T05:15:24.194Z,11.37
2023-05-13T05:17:52.615Z,11.50
2023-05-13T05:20:21.542Z,11.62
2023-05-13T05:22:50.997Z,11.72
2023-05-13T05:25:19.350Z,11.83
2023-05-13T05:27:47.688Z,11.96
2023-05-13T05:30:16.264Z,12.09
2023-05-13T05:32:44.660Z,12.20
2023-05-13T05:35:13.602Z,12.33
2023-05-13T05:37:41.980Z,12.44
2023-05-13T05:40:10.990Z,12.56
2023-05-13T05:42:39.373Z,12.68
2023-05-13T05:45:08.543Z,12.79
2023-05-13T05:47:36.885Z,12.90
2023-05-13T05:50:06.157Z,13.02
2023-05-13T05:52:34.466Z,13.13
2023-05-13T05:55:03.565Z,13.23
2023-05-13T06:05:54.992Z,13.62
2023-05-13T06:08:30.108Z,13.69
2023-05-13T06:10:59.495Z,13.78
2023-05-13T06:13:27.957Z,13.87
2023-05-13T06:15:56.668Z,13.98
2023-05-13T06:18:26.758Z,14.08
2023-05-13T06:20:55.287Z,14.16
2023-05-13T06:23:23.700Z,14.24
2023-05-13T06:25:52.441Z,14.34
2023-05-13T06:28:21.064Z,14.40
2023-05-13T06:30:49.490Z,14.45
2023-05-13T06:33:17.808Z,14.54
2023-05-13T06:35:49.566Z,14.62
2023-05-13T06:38:18.263Z,14.68
2023-05-13T06:40:46.712Z,14.75
2023-05-13T06:43:16.375Z,14.83
2023-05-13T06:45:44.909Z,14.92
2023-05-13T06:48:14.327Z,15.01
2023-05-13T06:50:42.820Z,15.10
2023-05-13T06:53:14.062Z,15.17
2023-05-13T06:55:42.781Z,15.26
2023-05-13T06:58:11.188Z,15.35
2023-05-13T07:00:41.145Z,15.42
2023-05-13T07:03:09.578Z,15.50
2023-05-13T07:05:38.069Z,15.58
2023-05-13T07:08:07.201Z,15.64
2023-05-13T07:10:37.184Z,15.71
2023-05-13T07:13:06.496Z,15.78
2023-05-13T07:15:34.824Z,15.85
2023-05-13T07:18:03.360Z,15.92
2023-05-13T07:20:31.809Z,15.99
2023-05-13T07:23:00.239Z,16.07
2023-05-13T07:25:28.785Z,16.16
2023-05-13T07:27:57.189Z,16.22
2023-05-13T07:30:25.929Z,16.28
2023-05-13T07:32:54.468Z,16.34
2023-05-13T07:35:23.120Z,16.41
2023-05-13T07:37:51.825Z,16.49
2023-05-13T07:40:21.154Z,16.59
2023-05-13T07:42:50.555Z,16.66
2023-05-13T07:45:19.249Z,16.75
2023-05-13T07:47:47.910Z,16.84
2023-05-13T07:50:16.494Z,16.94
2023-05-13T07:52:48.989Z,17.03
2023-05-13T07:55:18.093Z,17.12
2023-05-13T07:57:46.472Z,17.23
2023-05-13T08:00:15.812Z,17.37
2023-05-13T08:02:44.691Z,17.48
2023-05-13T08:05:13.479Z,17.59
2023-05-13T08:07:42.083Z,17.71
2023-05-13T08:10:10.789Z,17.82
2023-05-13T08:12:42.559Z,17.94
2023-05-13T08:15:12.142Z,18.05
2023-05-13T08:17:40.452Z,18.14
2023-05-13T08:20:11.377Z,18.27
2023-05-13T08:22:39.747Z,18.39
2023-05-13T08:25:08.558Z,18.52
2023-05-13T08:27:37.357Z,18.64
2023-05-13T08:30:07.048Z,18.74
2023-05-13T08:32:35.495Z,18.87
2023-05-13T08:35:04.075Z,19.02
2023-05-13T08:37:32.740Z,19.16
2023-05-13T08:40:01.767Z,19.30
2023-05-13T08:42:33.460Z,19.43
2023-05-13T08:45:05.799Z,19.54
2023-05-13T08:47:52.567Z,19.72
2023-05-13T08:50:22.579Z,19.92
2023-05-13T08:52:54.025Z,20.10
2023-05-13T08:55:24.409Z,20.23
2023-05-13T08:57:53.626Z,20.34
2023-05-13T09:00:22.172Z,20.38
2023-05-13T09:02:52.021Z,20.47
2023-05-13T09:05:22.525Z,20.61
2023-05-13T09:07:51.586Z,20.72
2023-05-13T09:10:21.379Z,20.94
2023-05-13T09:12:51.387Z,21.15
2023-05-13T09:15:25.961Z,21.34
2023-05-13T09:17:59.755Z,21.45
2023-05-13T09:20:29.201Z,21.53
2023-05-13T09:23:10.813Z,21.56
2023-05-13T09:25:39.859Z,21.58
2023-05-13T09:28:08.753Z,21.59
2023-05-13T09:30:44.544Z,21.56
2023-05-13T09:33:22.690Z,21.57
2023-05-13T09:35:54.824Z,21.61
2023-05-13T09:38:29.476Z,21.67
2023-05-13T09:41:03.428Z,21.75
2023-05-13T09:43:34.076Z,21.86
2023-05-13T09:46:10.487Z,21.99
2023-05-13T09:48:44.060Z,22.24
2023-05-13T09:51:16.552Z,22.45
2023-05-13T09:53:51.192Z,22.54
2023-05-13T09:56:24.181Z,22.59
2023-05-13T09:58:53.126Z,22.54
2023-05-13T10:01:41.768Z,22.64
2023-05-13T10:04:31.389Z,22.99
2023-05-13T10:07:04.209Z,23.30
2023-05-13T10:09:36.661Z,23.38
2023-05-13T10:12:08.859Z,23.35
2023-05-13T10:14:38.267Z,23.31
2023-05-13T10:17:08.047Z,23.26
2023-05-13T10:19:37.188Z,23.23
2023-05-13T10:22:06.504Z,23.22
2023-05-13T10:24:38.699Z,23.42
2023-05-13T10:27:08.523Z,23.58
2023-05-13T10:29:40.655Z,23.67
2023-05-13T10:32:10.564Z,23.68
2023-05-13T10:34:41.069Z,23.69
2023-05-13T10:37:34.568Z,23.75
2023-05-13T10:40:34.431Z,23.77
2023-05-13T10:43:20.890Z,23.86
2023-05-13T10:45:56.217Z,23.92
2023-05-13T10:48:24.868Z,23.91
2023-05-13T10:51:03.149Z,23.83
2023-05-13T10:53:36.177Z,23.77
2023-05-13T10:56:08.091Z,23.75
2023-05-13T10:58:39.400Z,23.80
2023-05-13T11:01:35.287Z,23.88
2023-05-13T11:04:06.392Z,23.97
2023-05-13T11:06:36.957Z,24.02
2023-05-13T11:09:29.080Z,24.09
2023-05-13T11:12:03.888Z,24.18
2023-05-13T11:14:36.752Z,24.24
2023-05-13T11:17:05.156Z,24.31
2023-05-13T11:19:50.568Z,24.34
2023-05-13T11:22:26.444Z,24.33
2023-05-13T11:25:09.096Z,24.32
2023-05-13T11:27:41.080Z,24.27
2023-05-13T11:30:34.165Z,24.24
2023-05-13T11:33:08.400Z,24.23
2023-05-13T11:35:37.002Z,24.28
2023-05-13T11:47:28.146Z,25.33
2023-05-13T11:50:01.231Z,25.64
2023-05-13T11:52:52.844Z,25.86
2023-05-13T11:55:55.794Z,26.04
2023-05-13T11:58:34.621Z,26.16
2023-05-13T12:01:30.008Z,26.19
2023-05-13T12:04:07.276Z,26.14
2023-05-13T12:06:46.935Z,25.95
2023-05-13T12:09:23.643Z,25.80
2023-05-13T12:12:03.352Z,25.63
2023-05-13T12:14:33.300Z,25.50
2023-05-13T12:17:02.572Z,25.39
2023-05-13T12:19:39.743Z,25.33
2023-05-13T12:22:12.574Z,25.29
2023-05-13T12:24:42.570Z,25.23
2023-05-13T12:30:03.160Z,25.08
2023-05-13T12:32:47.014Z,25.05
2023-05-13T12:35:16.139Z,25.12
2023-05-13T12:37:44.621Z,25.24
2023-05-13T12:40:14.886Z,25.41
2023-05-13T12:42:46.149Z,25.77
2023-05-13T12:45:19.598Z,26.06
2023-05-13T12:48:23.586Z,26.36
2023-05-13T12:50:53.106Z,26.55
2023-05-13T12:53:21.538Z,26.55
2023-05-13T12:55:50.055Z,26.36
2023-05-13T12:58:19.024Z,26.02
2023-05-13T13:00:47.537Z,25.67
2023-05-13T13:03:16.463Z,25.36
2023-05-13T13:05:44.938Z,25.06
2023-05-13T13:08:13.477Z,24.74
2023-05-13T13:10:42.400Z,24.44
2023-05-13T13:13:10.735Z,24.18
2023-05-13T13:15:39.474Z,24.00
2023-05-13T13:18:07.926Z,23.87
2023-05-13T13:20:37.720Z,23.80
2023-05-13T13:23:06.381Z,23.77
2023-05-13T13:25:34.759Z,23.79
2023-05-13T13:28:03.271Z,24.04
2023-05-13T13:30:31.661Z,24.56
2023-05-13T13:33:00.171Z,25.25
2023-05-13T13:35:28.704Z,26.04
2023-05-13T13:37:57.078Z,26.58
2023-05-13T13:40:25.510Z,26.98
2023-05-13T13:42:53.825Z,27.34
2023-05-13T13:45:24.199Z,27.59
2023-05-13T13:47:52.800Z,27.90
2023-05-13T13:50:21.760Z,28.18
2023-05-13T13:52:52.507Z,28.54
2023-05-13T13:55:23.064Z,29.30
2023-05-13T13:57:52.143Z,30.12
2023-05-13T14:00:20.967Z,30.79
2023-05-13T14:02:49.898Z,31.15
2023-05-13T14:05:18.570Z,31.30
2023-05-13T14:07:48.456Z,31.59
2023-05-13T14:10:16.996Z,31.89
2023-05-13T14:12:45.635Z,32.00
2023-05-13T14:15:13.970Z,32.24
2023-05-13T14:17:42.421Z,32.60
2023-05-13T14:20:12.206Z,32.95
2023-05-13T14:22:40.823Z,33.68
2023-05-13T14:25:09.818Z,34.08
2023-05-13T14:27:38.198Z,34.15
2023-05-13T14:30:08.080Z,34.05
2023-05-13T14:32:36.593Z,33.95
2023-05-13T14:35:05.715Z,33.86
2023-05-13T14:37:34.063Z,33.56
2023-05-13T14:40:05.496Z,33.10
2023-05-13T14:42:33.854Z,32.50
2023-05-13T14:45:02.275Z,31.88
2023-05-13T14:47:31.102Z,31.25
2023-05-13T14:49:59.650Z,30.66
2023-05-13T14:52:28.083Z,30.05
2023-05-13T14:54:56.393Z,29.53
2023-05-13T14:57:24.981Z,29.09
2023-05-13T14:59:53.394Z,28.72
2023-05-13T15:02:21.877Z,28.39
2023-05-13T15:04:50.466Z,28.05
2023-05-13T15:07:19.480Z,27.75
2023-05-13T15:09:47.749Z,27.46
2023-05-13T15:12:16.102Z,27.16
2023-05-13T15:14:53.393Z,26.90
2023-05-13T15:17:21.966Z,26.62
2023-05-13T15:19:50.466Z,26.34
2023-05-13T15:22:18.816Z,26.06
2023-05-13T15:24:47.299Z,25.77
2023-05-13T15:27:17.184Z,25.46
2023-05-13T15:29:45.710Z,25.12
2023-05-13T15:32:14.076Z,24.80
2023-05-13T15:34:43.729Z,24.55
2023-05-13T15:37:12.210Z,24.31
2023-05-13T15:39:40.632Z,24.10
2023-05-13T15:42:08.947Z,23.89
2023-05-13T15:44:37.280Z,23.69
2023-05-13T15:47:06.307Z,23.47
2023-05-13T15:49:34.844Z,23.30
2023-05-13T15:52:06.242Z,23.08
2023-05-13T15:54:35.327Z,22.91
2023-05-13T15:57:04.215Z,22.75
2023-05-13T15:59:32.763Z,22.59
2023-05-13T16:02:01.215Z,22.43
2023-05-13T16:04:29.780Z,22.29
2023-05-13T16:06:58.289Z,22.14
2023-05-13T16:09:26.731Z,22.01
2023-05-13T16:11:55.441Z,21.86
2023-05-13T16:14:23.777Z,21.73
2023-05-13T16:16:52.171Z,21.60
2023-05-13T16:19:20.724Z,21.49
2023-05-13T16:21:49.076Z,21.38
2023-05-13T16:24:17.581Z,21.30
2023-05-13T16:26:46.449Z,21.22
2023-05-13T16:29:14.895Z,21.13
2023-05-13T16:31:43.317Z,21.07
2023-05-13T16:34:13.046Z,21.00
2023-05-13T16:36:41.346Z,20.94
2023-05-13T16:39:09.877Z,20.88
2023-05-13T16:41:38.268Z,20.83
2023-05-13T16:44:06.780Z,20.78
2023-05-13T16:46:35.965Z,20.76
2023-05-13T16:49:04.528Z,20.74
2023-05-13T16:51:32.967Z,20.73
2023-05-13T16:54:01.488Z,20.74
2023-05-13T16:56:31.336Z,20.72
2023-05-13T16:59:00.039Z,20.70
2023-05-13T17:01:28.572Z,20.67
2023-05-13T17:03:56.961Z,20.64
2023-05-13T17:06:26.052Z,20.58
2023-05-13T17:08:54.388Z,20.52
2023-05-13T17:11:22.689Z,20.45
2023-05-13T17:13:51.241Z,20.38
2023-05-13T17:16:19.760Z,20.30
2023-05-13T17:18:48.764Z,20.22
2023-05-13T17:21:17.679Z,20.14
2023-05-13T17:23:46.200Z,20.06
2023-05-13T17:26:14.557Z,19.98
2023-05-13T17:28:43.719Z,19.90
2023-05-13T17:31:12.177Z,19.82
2023-05-13T17:33:40.641Z,19.74
2023-05-13T17:36:11.179Z,19.67
2023-05-13T17:38:43.875Z,19.59
2023-05-13T17:41:16.202Z,19.51
2023-05-13T17:43:44.746Z,19.43
2023-05-13T17:46:16.691Z,19.35
2023-05-13T17:48:45.926Z,19.26
2023-05-13T17:51:16.406Z,19.17
2023-05-13T17:53:47.806Z,19.07
2023-05-13T17:56:17.248Z,18.98
2023-05-13T17:58:46.042Z,18.88
2023-05-13T18:01:21.904Z,18.77
2023-05-13T18:03:51.559Z,18.65
2023-05-13T18:06:19.901Z,18.52
2023-05-13T18:08:52.181Z,18.39
2023-05-13T18:11:22.132Z,18.24
2023-05-13T18:13:50.614Z,18.12
2023-05-13T18:16:19.723Z,17.98
2023-05-13T18:18:48.733Z,17.84
2023-05-13T18:21:17.427Z,17.70
2023-05-13T18:23:46.625Z,17.58
2023-05-13T18:26:15.197Z,17.45
2023-05-13T18:28:47.874Z,17.33
2023-05-13T18:31:16.308Z,17.18
2023-05-13T18:33:45.115Z,17.04
2023-05-13T18:36:13.571Z,16.89
2023-05-13T18:38:42.400Z,16.76
2023-05-13T18:41:10.896Z,16.61
2023-05-13T18:43:39.655Z,16.46
2023-05-13T18:46:09.512Z,16.31
2023-05-13T18:48:37.979Z,16.16
2023-05-13T18:51:06.439Z,16.01
2023-05-13T18:53:35.237Z,15.85
2023-05-13T18:56:03.706Z,15.70
2023-05-13T18:58:32.133Z,15.56
2023-05-13T19:01:01.035Z,15.42
2023-05-13T19:03:29.917Z,15.28
2023-05-13T19:05:58.356Z,15.16
2023-05-13T19:08:28.032Z,15.07
2023-05-13T19:10:57.335Z,14.96
2023-05-13T19:13:33.175Z,14.87
2023-05-13T19:16:06.261Z,14.78
2023-05-13T19:18:34.708Z,14.70
2023-05-13T19:21:03.250Z,14.61
2023-05-13T19:23:31.596Z,14.53
2023-05-13T19:26:00.112Z,14.44
2023-05-13T19:28:28.994Z,14.37
2023-05-13T19:30:57.416Z,14.30
2023-05-13T19:33:26.432Z,14.21
2023-05-13T19:35:54.816Z,14.13
2023-05-13T19:38:25.347Z,14.05
2023-05-13T19:40:55.555Z,13.98
2023-05-13T19:43:25.047Z,13.91
2023-05-13T19:45:56.850Z,13.85
2023-05-13T19:48:26.350Z,13.79
2023-05-13T19:50:57.909Z,13.72
2023-05-13T19:53:26.675Z,13.65
2023-05-13T19:55:55.683Z,13.57
2023-05-13T19:58:24.091Z,13.51
2023-05-13T20:00:54.589Z,13.44
2023-05-13T20:03:23.046Z,13.36
2023-05-13T20:05:54.666Z,13.30
2023-05-13T20:08:23.080Z,13.22
2023-05-13T20:10:51.609Z,13.15
2023-05-13T20:13:19.983Z,13.08
2023-05-13T20:15:48.467Z,13.01
2023-05-13T20:18:17.783Z,12.95
2023-05-13T20:20:47.085Z,12.89
2023-05-13T20:23:15.495Z,12.82
2023-05-13T20:25:47.166Z,12.75
2023-05-13T20:28:15.906Z,12.68
2023-05-13T20:30:44.272Z,12.62
2023-05-13T20:33:14.993Z,12.56
2023-05-13T20:35:43.456Z,12.50
2023-05-13T20:38:11.869Z,12.44
2023-05-13T20:40:40.951Z,12.38
2023-05-13T20:43:36.705Z,12.32
2023-05-13T20:46:07.186Z,12.28
2023-05-13T20:48:36.116Z,12.23
2023-05-13T20:51:06.246Z,12.19
2023-05-13T20:53:35.564Z,12.16
2023-05-13T20:56:04.188Z,12.09
2023-05-13T20:58:32.663Z,12.04
2023-05-13T21:01:01.152Z,11.97
2023-05-13T21:03:29.767Z,11.88
2023-05-13T21:05:58.117Z,11.77
2023-05-13T21:08:26.553Z,11.66
2023-05-13T21:10:56.357Z,11.56
2023-05-13T21:13:26.001Z,11.48
2023-05-13T21:15:55.782Z,11.41
2023-05-13T21:18:25.480Z,11.35
2023-05-13T21:20:53.878Z,11.29
2023-05-13T21:23:22.273Z,11.23
2023-05-13T21:25:50.623Z,11.20
2023-05-13T21:28:18.922Z,11.16
2023-05-13T21:30:47.398Z,11.12
2023-05-13T21:33:16.960Z,11.08
2023-05-13T21:35:45.320Z,11.04
2023-05-13T21:38:13.659Z,10.98
2023-05-13T21:40:41.995Z,10.93
2023-05-13T21:43:11.227Z,10.88
2023-05-13T21:45:40.096Z,10.84
2023-05-13T21:48:08.632Z,10.80
2023-05-13T21:50:37.228Z,10.76
2023-05-13T21:53:05.864Z,10.73
2023-05-13T21:55:35.133Z,10.70
2023-05-13T21:58:03.672Z,10.66
2023-05-13T22:00:32.167Z,10.62
2023-05-13T22:03:01.593Z,10.58
2023-05-13T22:05:30.290Z,10.55
2023-05-13T22:08:00.320Z,10.52
2023-05-13T22:10:30.058Z,10.48
2023-05-13T22:12:58.392Z,10.45
2023-05-13T22:15:26.729Z,10.41
2023-05-13T22:17:55.324Z,10.38
2023-05-13T22:20:24.646Z,10.35
2023-05-13T22:22:53.363Z,10.33
2023-05-13T22:25:21.798Z,10.31
2023-05-13T22:27:51.176Z,10.27
2023-05-13T22:30:19.826Z,10.23
2023-05-13T22:32:48.347Z,10.19
2023-05-13T22:35:16.845Z,10.14
2023-05-13T22:37:45.228Z,10.08
2023-05-13T22:40:14.009Z,10.02
2023-05-13T22:42:42.550Z,9.95
2023-05-13T22:45:11.795Z,9.91
2023-05-13T22:47:40.164Z,9.88
2023-05-13T22:50:08.937Z,9.85
2023-05-13T22:52:37.245Z,9.82
2023-05-13T22:55:06.928Z,9.77
2023-05-13T22:57:35.430Z,9.72
2023-05-13T23:00:04.272Z,9.69
2023-05-13T23:02:32.785Z,9.65
2023-05-13T23:05:01.245Z,9.61
2023-05-13T23:07:29.623Z,9.57
2023-05-13T23:09:58.148Z,9.53
2023-05-13T23:12:26.633Z,9.49
2023-05-13T23:14:55.058Z,9.46
2023-05-13T23:17:23.477Z,9.44
2023-05-13T23:19:51.805Z,9.42
2023-05-13T23:22:20.199Z,9.41
2023-05-13T23:24:48.588Z,9.39
2023-05-13T23:27:16.963Z,9.38
2023-05-13T23:29:45.346Z,9.36
2023-05-13T23:32:13.900Z,9.35
2023-05-13T23:34:42.207Z,9.34
2023-05-13T23:37:11.414Z,9.33
2023-05-13T23:39:39.794Z,9.31
2023-05-13T23:42:08.105Z,9.29
2023-05-13T23:44:36.711Z,9.27
2023-05-13T23:47:05.573Z,9.25
2023-05-13T23:49:33.920Z,9.24
2023-05-13T23:52:02.286Z,9.22
2023-05-13T23:54:31.053Z,9.19
2023-05-13T23:56:59.413Z,9.16
2023-05-13T23:59:27.840Z,9.14
